Time;durP1;ratioP1;P1;durP2;ratioP2;P2;SDS_P1;SDS_P2;PMS_P1;PMS_P2;Temp;Humidity;BMP_temperature;BMP_pressure;BME280_temperature;BME280_humidity;BME280_pressure;Samples;Min_cycle;Max_cycle;Signal;HPM_P1;HPM_P2
2022/06/21 00:00:43;;;;;;;10.57;5.62;;;;;;;25.60;55.30;98841.03;4313824;33;33363;-65
2022/06/21 00:03:14;;;;;;;10.52;5.28;;;;;;;25.38;56.09;98848.13;4315618;33;34055;-61
2022/06/21 00:05:45;;;;;;;10.13;5.90;;;;;;;25.22;56.74;98844.97;4306374;33;33934;-62
2022/06/21 00:08:23;;;;;;;13.27;6.18;;;;;;;25.18;56.85;98838.28;4329050;33;35186;-61
2022/06/21 00:10:52;;;;;;;9.10;5.70;;;;;;;24.86;57.81;98843.91;4327587;33;33646;-63
2022/06/21 00:13:28;;;;;;;8.35;5.32;;;;;;;25.25;56.62;98841.75;4326615;33;33590;-63
2022/06/21 00:16:02;;;;;;;12.13;5.90;;;;;;;25.11;56.96;98845.72;4317765;33;34104;-65
2022/06/21 00:18:32;;;;;;;9.37;5.03;;;;;;;25.06;57.17;98853.78;4319532;33;34791;-62
2022/06/21 00:20:59;;;;;;;10.02;5.20;;;;;;;25.26;56.46;98859.84;4335848;33;35388;-62
2022/06/21 00:23:30;;;;;;;10.48;5.28;;;;;;;25.21;56.62;98859.72;4318749;33;32286;-63
2022/06/21 00:25:58;;;;;;;12.45;6.10;;;;;;;25.25;56.52;98863.66;4321690;33;32788;-62
2022/06/21 00:28:26;;;;;;;11.80;5.07;;;;;;;25.18;56.83;98876.62;4317593;33;34000;-63
2022/06/21 00:30:54;;;;;;;8.75;5.05;;;;;;;24.83;58.18;98881.84;4320688;33;34518;-66
2022/06/21 00:33:24;;;;;;;9.38;6.25;;;;;;;24.75;58.41;98883.00;4313070;33;34097;-63
2022/06/21 00:35:56;;;;;;;11.32;5.10;;;;;;;24.75;58.42;98883.00;4330431;33;33994;-62
2022/06/21 00:38:31;;;;;;;12.85;5.87;;;;;;;25.06;57.52;98889.38;4315342;33;34224;-61
2022/06/21 00:41:02;;;;;;;7.93;5.13;;;;;;;24.48;58.96;98893.38;4317521;33;32545;-61
2022/06/21 00:43:33;;;;;;;9.77;5.35;;;;;;;24.25;58.83;98888.50;4318437;33;34011;-62
2022/06/21 00:46:01;;;;;;;8.18;4.80;;;;;;;24.48;57.37;98881.59;4316974;33;33101;-63
2022/06/21 00:48:36;;;;;;;9.32;5.50;;;;;;;24.59;56.15;98872.63;4330788;33;35291;-61
2022/06/21 00:51:28;;;;;;;6.43;4.22;;;;;;;24.22;56.57;98877.19;4318599;33;33459;-62
2022/06/21 00:53:59;;;;;;;8.68;4.53;;;;;;;24.14;56.12;98872.81;4314054;33;32291;-60
2022/06/21 00:56:31;;;;;;;8.32;4.37;;;;;;;24.38;55.50;98882.91;4304345;33;35073;-61
2022/06/21 00:59:25;;;;;;;6.75;4.10;;;;;;;24.66;54.85;98881.63;4324808;33;33980;-60
2022/06/21 01:02:05;;;;;;;9.13;4.32;;;;;;;24.49;55.24;98872.31;4327371;33;34514;-62
2022/06/21 01:04:37;;;;;;;8.70;3.97;;;;;;;24.26;55.92;98871.03;4324272;33;33655;-63
2022/06/21 01:07:07;;;;;;;8.63;4.15;;;;;;;24.62;54.57;98864.84;4330237;33;36136;-63
2022/06/21 01:10:13;;;;;;;11.02;4.18;;;;;;;23.80;56.75;98844.13;4309314;33;33123;-62
2022/06/21 01:12:51;;;;;;;6.78;3.95;;;;;;;24.08;56.36;98839.03;4327208;33;33555;-61
2022/06/21 01:15:22;;;;;;;7.78;3.90;;;;;;;23.91;57.00;98866.06;4325705;33;34088;-58
2022/06/21 01:17:56;;;;;;;7.53;4.20;;;;;;;23.84;57.44;98864.47;4316580;33;32783;-61
2022/06/21 01:20:25;;;;;;;7.93;4.30;;;;;;;23.60;57.38;98869.66;4314764;33;34181;-60
2022/06/21 01:23:17;;;;;;;9.77;4.35;;;;;;;23.60;56.87;98875.09;4327509;33;32345;-64
2022/06/21 01:26:16;;;;;;;6.85;4.15;;;;;;;23.49;56.77;98879.34;4312814;33;33877;-62
2022/06/21 01:28:44;;;;;;;8.05;4.18;;;;;;;23.48;56.52;98883.16;4329298;33;35294;-64
2022/06/21 01:31:12;;;;;;;8.25;4.22;;;;;;;23.37;56.29;98891.19;4320013;33;35146;-60
2022/06/21 01:33:41;;;;;;;8.98;4.07;;;;;;;23.55;55.45;98910.41;4319464;33;34822;-64
2022/06/21 01:36:13;;;;;;;8.57;3.37;;;;;;;23.51;55.48;98916.56;4327759;33;33620;-62
2022/06/21 01:38:47;;;;;;;12.45;4.30;;;;;;;23.59;54.82;98916.28;4313932;33;32517;-62
2022/06/21 01:41:19;;;;;;;5.62;3.42;;;;;;;23.81;53.53;98909.44;4316863;33;35584;-62
2022/06/21 01:43:48;;;;;;;7.15;3.83;;;;;;;23.75;53.61;98910.31;4325372;33;35368;-66
2022/06/21 01:46:19;;;;;;;8.38;4.78;;;;;;;23.91;53.20;98918.00;4309172;33;35042;-63
2022/06/21 01:48:50;;;;;;;6.70;3.92;;;;;;;23.80;53.39;98913.25;4333802;33;34375;-62
2022/06/21 01:51:27;;;;;;;8.63;3.95;;;;;;;23.49;53.98;98905.84;4329457;33;35272;-65
2022/06/21 01:53:56;;;;;;;7.20;4.20;;;;;;;23.29;54.30;98911.41;4319175;33;33747;-63
2022/06/21 01:56:27;;;;;;;7.28;4.30;;;;;;;23.02;54.86;98916.97;4316012;33;34907;-64
2022/06/21 01:59:06;;;;;;;8.35;4.55;;;;;;;23.13;54.77;98922.81;4325260;33;33663;-64
2022/06/21 02:01:51;;;;;;;8.10;4.87;;;;;;;23.29;54.17;98910.56;4331132;33;33866;-64
2022/06/21 02:04:21;;;;;;;7.28;4.78;;;;;;;23.39;54.06;98919.13;4319428;33;33736;-61
2022/06/21 02:06:50;;;;;;;6.93;4.37;;;;;;;23.29;54.31;98929.69;4314933;33;32205;-61
2022/06/21 02:09:24;;;;;;;8.07;4.78;;;;;;;23.16;54.62;98914.19;4324641;33;33766;-61
2022/06/21 02:12:13;;;;;;;9.25;4.93;;;;;;;23.02;54.97;98930.62;4324401;33;34993;-61
2022/06/21 02:14:47;;;;;;;8.25;4.80;;;;;;;23.24;54.54;98927.59;4327869;33;33745;-61
2022/06/21 02:17:19;;;;;;;;;;;;;;;23.33;54.20;98928.19;4307063;33;33771;-63
2022/06/21 02:20:02;;;;;;;7.93;5.12;;;;;;;23.34;54.26;98929.84;4309215;33;34325;-62
2022/06/21 02:22:30;;;;;;;11.55;5.85;;;;;;;22.83;56.21;98942.41;4332238;33;33969;-63
2022/06/21 02:24:58;;;;;;;8.07;5.53;;;;;;;23.46;54.02;98926.22;4305457;33;33715;-63
2022/06/21 02:27:30;;;;;;;9.80;6.05;;;;;;;23.06;55.02;98928.31;4327925;33;34028;-62
2022/06/21 02:30:00;;;;;;;8.32;6.05;;;;;;;23.23;54.58;98929.47;4326308;33;33719;-62
2022/06/21 02:32:35;;;;;;;8.48;4.75;;;;;;;22.49;56.57;98927.97;4310377;33;34069;-64
2022/06/21 02:35:34;;;;;;;7.87;4.97;;;;;;;22.83;55.06;98923.31;4321741;33;33635;-62
2022/06/21 02:38:05;;;;;;;7.65;4.85;;;;;;;22.45;55.96;98917.69;4313055;33;33875;-62
2022/06/21 02:40:41;;;;;;;5.78;3.78;;;;;;;22.36;54.72;98911.63;4330799;33;34604;-65
2022/06/21 02:43:14;;;;;;;6.65;4.28;;;;;;;22.09;54.55;98913.50;4324103;33;34198;-62
2022/06/21 02:45:54;;;;;;;9.40;4.50;;;;;;;22.51;52.81;98909.50;4326495;33;33659;-62
2022/06/21 02:48:26;;;;;;;10.85;4.10;;;;;;;22.19;53.36;98911.22;4331752;33;34000;-63
2022/06/21 02:51:17;;;;;;;6.05;3.72;;;;;;;22.22;53.00;98912.69;4317773;33;33658;-62
2022/06/21 02:54:07;;;;;;;7.55;4.45;;;;;;;21.90;53.59;98925.22;4312908;33;34294;-62
2022/06/21 02:56:56;;;;;;;10.02;4.20;;;;;;;21.93;53.44;98925.63;4314507;33;34676;-62
2022/06/21 02:59:24;;;;;;;7.32;4.28;;;;;;;22.12;53.20;98931.28;4313278;33;33902;-61
2022/06/21 03:02:04;;;;;;;6.60;4.07;;;;;;;21.89;54.25;98948.03;4315958;33;33924;-61
2022/06/21 03:04:35;;;;;;;6.03;4.03;;;;;;;21.97;53.80;98951.41;4319650;33;35189;-63
2022/06/21 03:07:04;;;;;;;7.18;4.65;;;;;;;22.12;53.61;98961.28;4314777;33;32034;-66
2022/06/21 03:09:33;;;;;;;8.13;4.62;;;;;;;21.63;55.03;98977.72;4318796;33;34833;-61
2022/06/21 03:12:04;;;;;;;9.27;5.00;;;;;;;21.25;56.03;98974.63;4314430;33;33831;-62
2022/06/21 03:14:33;;;;;;;11.57;5.20;;;;;;;21.54;55.53;98983.56;4314512;33;33793;-63
2022/06/21 03:17:02;;;;;;;8.50;4.93;;;;;;;21.68;55.13;98992.63;4331357;33;33358;-64
2022/06/21 03:19:42;;;;;;;7.53;5.00;;;;;;;21.78;54.86;98987.63;4317281;33;33663;-63
2022/06/21 03:22:16;;;;;;;7.12;4.90;;;;;;;21.68;55.26;98998.06;4318173;33;35493;-59
2022/06/21 03:24:45;;;;;;;6.97;4.85;;;;;;;21.09;57.41;98997.56;4329554;33;33611;-65
2022/06/21 03:27:28;;;;;;;10.02;5.10;;;;;;;21.58;55.75;99004.75;4324418;33;32462;-64
2022/06/21 03:29:56;;;;;;;7.37;4.40;;;;;;;21.63;55.53;98998.66;4327270;33;33994;-61
2022/06/21 03:32:26;;;;;;;7.35;4.97;;;;;;;21.52;56.10;99008.28;4326406;33;32749;-60
2022/06/21 03:34:54;;;;;;;8.10;4.68;;;;;;;21.30;55.93;99009.41;4325925;33;34369;-61
2022/06/21 03:37:22;;;;;;;7.43;4.40;;;;;;;21.60;55.11;99009.97;4321946;33;34527;-62
2022/06/21 03:42:41;;;;;;;6.95;4.28;;;;;;;22.07;52.94;99024.56;4317820;33;32796;-61
2022/06/21 03:45:19;;;;;;;6.50;4.10;;;;;;;21.13;55.14;99031.50;4312854;33;34823;-61
2022/06/21 03:48:10;;;;;;;7.30;3.83;;;;;;;21.73;53.47;99023.63;4314450;33;34841;-60
2022/06/21 03:50:42;;;;;;;6.18;3.40;;;;;;;21.22;54.06;99026.75;4304351;33;33599;-60
2022/06/21 03:53:15;;;;;;;7.07;3.40;;;;;;;21.36;53.67;99035.84;4301799;33;33908;-61
2022/06/21 03:55:46;;;;;;;5.40;3.10;;;;;;;20.72;53.39;99042.28;4292934;33;34096;-62
2022/06/21 03:58:43;;;;;;;5.97;2.87;;;;;;;21.26;52.42;99052.50;4306053;33;32850;-63
2022/06/21 04:01:22;;;;;;;4.32;2.30;;;;;;;21.66;49.07;99039.13;4290809;33;33976;-64
2022/06/21 04:04:29;;;;;;;5.30;2.75;;;;;;;21.64;49.42;99041.22;4304812;33;32754;-63
2022/06/21 04:06:56;;;;;;;;;;;;;;;21.19;51.35;99043.47;4287353;33;34094;-61
2022/06/21 04:09:55;;;;;;;6.80;3.10;;;;;;;21.13;50.25;99053.25;4311230;33;34350;-61
2022/06/21 04:12:52;;;;;;;5.75;2.65;;;;;;;21.62;49.81;99060.47;4297202;33;34934;-62
2022/06/21 04:15:52;;;;;;;3.83;2.25;;;;;;;21.52;49.53;99046.38;4304143;33;34160;-61
2022/06/21 04:18:37;;;;;;;4.12;2.28;;;;;;;21.83;48.06;99047.78;4304206;33;33524;-61
2022/06/21 04:21:16;;;;;;;4.37;2.10;;;;;;;21.55;47.27;99056.87;4301449;33;31994;-61
2022/06/21 04:23:58;;;;;;;3.72;2.05;;;;;;;21.68;46.31;99055.25;4315477;33;33984;-60
2022/06/21 04:26:57;;;;;;;4.80;2.30;;;;;;;21.47;46.30;99048.87;4313884;33;33850;-61
2022/06/21 04:29:46;;;;;;;5.75;2.40;;;;;;;21.31;45.73;99043.72;4307190;33;34917;-63
2022/06/21 04:32:15;;;;;;;3.20;1.80;;;;;;;22.00;43.78;99054.53;4311446;33;33629;-61
2022/06/21 04:34:51;;;;;;;4.72;1.98;;;;;;;21.77;43.05;99064.94;4304416;33;33672;-61
2022/06/21 04:37:31;;;;;;;4.20;1.90;;;;;;;21.52;42.96;99057.28;4296140;33;35135;-61
2022/06/21 04:40:07;;;;;;;3.15;1.70;;;;;;;21.29;44.15;99075.78;4313586;33;34033;-60
2022/06/21 04:42:47;;;;;;;3.45;1.65;;;;;;;21.29;43.40;99070.31;4293427;33;32761;-63
2022/06/21 04:45:20;;;;;;;3.78;1.92;;;;;;;21.23;43.38;99073.84;4300114;33;33553;-60
2022/06/21 04:48:24;;;;;;;5.20;1.85;;;;;;;21.15;43.96;99072.97;4300275;33;35127;-61
2022/06/21 04:50:57;;;;;;;4.12;1.70;;;;;;;21.14;44.19;99065.81;4314914;33;34222;-61
2022/06/21 04:53:58;;;;;;;3.33;1.75;;;;;;;21.26;43.74;99078.87;4304555;33;33201;-60
2022/06/21 04:56:46;;;;;;;3.97;1.77;;;;;;;21.69;42.93;99073.28;4284846;33;32399;-60
2022/06/21 04:59:32;;;;;;;3.00;1.58;;;;;;;21.41;43.92;99068.72;4312458;33;32970;-60
2022/06/21 05:02:01;;;;;;;5.85;1.67;;;;;;;21.17;43.71;99067.31;4301568;33;34318;-61
2022/06/21 05:04:32;;;;;;;3.65;1.70;;;;;;;20.90;44.07;99069.03;4319537;33;33554;-62
2022/06/21 05:07:03;;;;;;;3.75;2.05;;;;;;;21.45;43.51;99070.03;4314218;33;33545;-63
2022/06/21 05:09:32;;;;;;;6.28;1.90;;;;;;;21.18;43.63;99077.97;4312179;33;33873;-63
2022/06/21 05:12:09;;;;;;;5.15;1.80;;;;;;;21.43;44.29;99087.59;4316764;33;35243;-61
2022/06/21 05:14:41;;;;;;;2.78;1.37;;;;;;;21.65;42.77;99091.91;4318015;33;32990;-60
2022/06/21 05:17:12;;;;;;;4.70;1.87;;;;;;;21.59;42.75;99095.44;4300533;33;34012;-60
2022/06/21 05:19:45;;;;;;;2.83;1.62;;;;;;;21.79;42.12;99093.63;4306084;33;34189;-64
2022/06/21 05:22:21;;;;;;;6.45;1.85;;;;;;;21.57;42.98;99087.47;4295563;33;33061;-65
2022/06/21 05:24:50;;;;;;;3.92;1.45;;;;;;;21.55;43.19;99100.44;4328225;33;33812;-63
2022/06/21 05:27:42;;;;;;;4.45;1.70;;;;;;;21.53;43.41;99096.22;4306822;33;33697;-64
2022/06/21 05:30:32;;;;;;;3.08;1.58;;;;;;;21.60;43.45;99106.12;4295904;33;33930;-60
2022/06/21 05:33:05;;;;;;;5.57;2.10;;;;;;;21.49;42.92;99111.31;4314261;33;34652;-60
2022/06/21 05:35:35;;;;;;;4.95;2.03;;;;;;;21.48;43.82;99099.56;4308726;33;32054;-61
2022/06/21 05:38:06;;;;;;;3.20;1.50;;;;;;;21.79;42.74;99098.25;4301934;33;34641;-61
2022/06/21 05:40:56;;;;;;;3.10;1.77;;;;;;;21.49;42.36;99103.13;4305939;33;33741;-62
2022/06/21 05:43:47;;;;;;;4.95;1.65;;;;;;;22.18;41.35;99108.47;4289909;33;33879;-61
2022/06/21 05:46:17;;;;;;;5.97;1.58;;;;;;;22.06;40.34;99113.66;4306830;33;32170;-60
2022/06/21 05:48:45;;;;;;;6.15;1.42;;;;;;;22.00;40.46;99114.47;4299265;33;32731;-61
2022/06/21 05:51:20;;;;;;;3.22;1.65;;;;;;;21.78;40.45;99119.19;4321881;33;34160;-59
2022/06/21 05:53:52;;;;;;;4.97;1.50;;;;;;;21.52;40.67;99110.91;4311818;33;32756;-62
2022/06/21 05:56:22;;;;;;;3.97;1.30;;;;;;;21.89;41.77;99128.66;4307438;33;31663;-61
2022/06/21 05:58:58;;;;;;;1.83;1.27;;;;;;;21.79;40.95;99126.31;4316824;33;33398;-60
